createdAt,value
2022-09-28T00:00:02.113Z,11.1
2022-09-28T00:01:02.250Z,11.1
2022-09-28T00:02:02.309Z,11.1
2022-09-28T00:03:01.587Z,11
2022-09-28T00:04:01.540Z,11
2022-09-28T00:05:01.426Z,11.1
2022-09-28T00:06:02.322Z,11.1
2022-09-28T00:07:02.068Z,11.2
2022-09-28T00:08:02.156Z,11.1
2022-09-28T00:09:01.925Z,11.1
2022-09-28T00:10:01.807Z,11.2
2022-09-28T00:11:01.885Z,11.3
2022-09-28T00:12:01.632Z,11.2
2022-09-28T00:13:01.573Z,11.2
2022-09-28T00:14:01.358Z,11.2
2022-09-28T00:15:02.408Z,11.2
2022-09-28T00:16:02.247Z,11.3
2022-09-28T00:17:01.532Z,11.2
2022-09-28T00:18:01.586Z,11.2
2022-09-28T00:19:01.327Z,11.3
2022-09-28T00:20:02.457Z,11.3
2022-09-28T00:21:02.229Z,11.3
2022-09-28T00:22:02.156Z,11.1
2022-09-28T00:23:01.909Z,11.2
2022-09-28T00:24:01.784Z,11.1
2022-09-28T00:25:01.936Z,11.2
2022-09-28T00:26:01.684Z,11.2
2022-09-28T00:27:01.624Z,11.3
2022-09-28T00:28:01.359Z,11.1
2022-09-28T00:29:02.346Z,11.2
2022-09-28T00:30:02.124Z,11.1
2022-09-28T00:31:02.239Z,11.1
2022-09-28T00:32:01.452Z,11.2
2022-09-28T00:33:01.481Z,11.1
2022-09-28T00:34:02.381Z,11.2
2022-09-28T00:35:02.135Z,11.1
2022-09-28T00:36:02.164Z,11
2022-09-28T00:37:01.894Z,11.2
2022-09-28T00:38:01.727Z,11.1
2022-09-28T00:39:01.785Z,11.1
2022-09-28T00:40:01.546Z,10.9
2022-09-28T00:41:01.526Z,11.1
2022-09-28T00:42:01.381Z,10.9
2022-09-28T00:43:02.397Z,11
2022-09-28T00:44:02.180Z,11
2022-09-28T00:45:02.261Z,11.1
2022-09-28T00:46:01.973Z,11
2022-09-28T00:47:01.839Z,11
2022-09-28T00:48:01.743Z,11
2022-09-28T00:49:01.534Z,10.9
2022-09-28T00:50:01.502Z,10.9
2022-09-28T00:51:02.420Z,10.8
2022-09-28T00:52:02.210Z,10.9
2022-09-28T00:53:02.154Z,10.8
2022-09-28T00:54:01.905Z,10.7
2022-09-28T00:55:01.751Z,10.8
2022-09-28T00:56:01.741Z,10.7
2022-09-28T00:57:01.499Z,10.7
2022-09-28T00:58:01.451Z,10.7
2022-09-28T00:59:02.438Z,10.8
2022-09-28T01:00:02.209Z,10.7
2022-09-28T01:01:02.241Z,10.7
2022-09-28T01:02:02.318Z,10.8
2022-09-28T01:03:02.534Z,10.7
2022-09-28T01:04:02.322Z,10.7
2022-09-28T01:05:02.293Z,10.7
2022-09-28T01:06:02.071Z,10.7
2022-09-28T01:07:02.144Z,10.6
2022-09-28T01:08:01.847Z,10.6
2022-09-28T01:09:01.765Z,10.6
2022-09-28T01:10:01.811Z,10.7
2022-09-28T01:11:01.565Z,10.8
2022-09-28T01:12:01.511Z,10.6
2022-09-28T01:13:02.386Z,10.6
2022-09-28T01:14:02.153Z,10.6
2022-09-28T01:15:02.266Z,10.7
2022-09-28T01:16:02.103Z,10.7
2022-09-28T01:17:01.440Z,10.7
2022-09-28T01:18:01.443Z,10.7
2022-09-28T01:19:02.347Z,10.6
2022-09-28T01:20:02.175Z,10.7
2022-09-28T01:21:02.122Z,10.7
2022-09-28T01:22:01.908Z,10.7
2022-09-28T01:23:01.760Z,10.7
2022-09-28T01:24:01.811Z,10.7
2022-09-28T01:25:01.559Z,10.7
2022-09-28T01:26:01.504Z,10.8
2022-09-28T01:27:02.488Z,10.7
2022-09-28T01:28:02.266Z,10.7
2022-09-28T01:29:02.329Z,10.6
2022-09-28T01:30:02.042Z,10.6
2022-09-28T01:31:01.984Z,10.6
2022-09-28T01:32:01.858Z,10.5
2022-09-28T01:33:01.975Z,10.5
2022-09-28T01:34:02.064Z,10.6
2022-09-28T01:35:01.814Z,10.6
2022-09-28T01:36:01.711Z,10.5
2022-09-28T01:37:01.674Z,10.5
2022-09-28T01:38:01.427Z,10.7
2022-09-28T01:39:01.463Z,10.6
2022-09-28T01:40:02.392Z,10.6
2022-09-28T01:41:02.183Z,10.6
2022-09-28T01:42:02.147Z,10.6
2022-09-28T01:43:01.890Z,10.7
2022-09-28T01:44:01.895Z,10.4
2022-09-28T01:45:01.967Z,10.5
2022-09-28T01:46:01.755Z,10.6
2022-09-28T01:47:02.137Z,10.6
2022-09-28T01:48:02.117Z,10.6
2022-09-28T01:49:01.881Z,10.6
2022-09-28T01:50:01.806Z,10.6
2022-09-28T01:51:01.756Z,10.4
2022-09-28T01:52:01.707Z,10.4
2022-09-28T01:53:01.490Z,10.4
2022-09-28T01:54:01.359Z,10.6
2022-09-28T01:55:02.419Z,10.5
2022-09-28T01:56:02.185Z,10.6
2022-09-28T01:57:02.101Z,10.4
2022-09-28T01:58:01.910Z,10.3
2022-09-28T01:59:01.770Z,10.5
2022-09-28T02:00:01.772Z,10.5
2022-09-28T02:01:01.628Z,10.4
2022-09-28T02:02:02.237Z,10.5
2022-09-28T02:03:02.221Z,10.4
2022-09-28T02:04:02.035Z,10.4
2022-09-28T02:05:02.004Z,10.3
2022-09-28T02:06:01.767Z,10.4
2022-09-28T02:07:01.624Z,10.4
2022-09-28T02:08:01.605Z,10.4
2022-09-28T02:09:01.418Z,10.4
2022-09-28T02:10:02.472Z,10.1
2022-09-28T02:11:02.235Z,10.3
2022-09-28T02:12:02.242Z,10.3
2022-09-28T02:13:02.028Z,10.2
2022-09-28T02:14:02.092Z,10.3
2022-09-28T02:15:01.955Z,10.2
2022-09-28T02:16:01.928Z,10.2
2022-09-28T02:17:01.372Z,10.2
2022-09-28T02:18:02.421Z,10.2
2022-09-28T02:19:02.219Z,10.2
2022-09-28T02:20:02.230Z,10.1
2022-09-28T02:21:02.075Z,10
2022-09-28T02:22:02.065Z,10.1
2022-09-28T02:23:01.807Z,10.1
2022-09-28T02:24:01.679Z,10.2
2022-09-28T02:25:01.669Z,10
2022-09-28T02:26:01.477Z,10.1
2022-09-28T02:27:01.466Z,10.2
2022-09-28T02:28:02.350Z,10.1
2022-09-28T02:29:02.144Z,10.1
2022-09-28T02:30:02.221Z,10.1
2022-09-28T02:31:01.933Z,10
2022-09-28T02:32:01.516Z,10.1
2022-09-28T02:33:01.504Z,10.1
2022-09-28T02:34:02.430Z,10.2
2022-09-28T02:35:02.246Z,10.2
2022-09-28T02:36:02.219Z,10.1
2022-09-28T02:37:02.049Z,10
2022-09-28T02:38:02.013Z,10
2022-09-28T02:39:01.832Z,10
2022-09-28T02:40:01.736Z,10
2022-09-28T02:41:01.728Z,10
2022-09-28T02:42:01.608Z,9.9
2022-09-28T02:43:01.587Z,9.9
2022-09-28T02:44:01.400Z,9.9
2022-09-28T02:45:02.507Z,9.8
2022-09-28T02:46:02.302Z,9.9
2022-09-28T02:47:01.631Z,9.9
2022-09-28T02:48:01.699Z,9.9
2022-09-28T02:49:20.113Z,9.7
2022-09-28T02:50:02.077Z,9.7
2022-09-28T02:51:02.097Z,9.7
2022-09-28T02:52:01.950Z,9.8
2022-09-28T02:53:01.864Z,9.8
2022-09-28T02:54:01.823Z,9.7
2022-09-28T02:55:01.840Z,9.6
2022-09-28T02:56:01.760Z,9.7
2022-09-28T02:57:01.749Z,9.8
2022-09-28T02:58:01.500Z,9.8
2022-09-28T02:59:01.506Z,9.8
2022-09-28T03:00:02.557Z,9.6
2022-09-28T03:01:01.356Z,9.6
2022-09-28T03:02:01.661Z,9.5
2022-09-28T03:03:01.722Z,9.5
2022-09-28T03:04:01.482Z,9.6
2022-09-28T03:05:01.476Z,9.6
2022-09-28T03:06:02.338Z,9.6
2022-09-28T03:07:02.134Z,9.3
2022-09-28T03:08:02.117Z,9.5
2022-09-28T03:09:01.928Z,9.3
2022-09-28T03:10:01.803Z,9.5
2022-09-28T03:11:01.925Z,9.3
2022-09-28T03:12:01.731Z,9.5
2022-09-28T03:13:01.719Z,9.3
2022-09-28T03:14:01.455Z,9.3
2022-09-28T03:15:01.535Z,9.2
2022-09-28T03:16:02.473Z,9.3
2022-09-28T03:17:01.484Z,9.2
2022-09-28T03:18:01.583Z,9.3
2022-09-28T03:19:01.340Z,9.2
2022-09-28T03:20:02.373Z,9.3
2022-09-28T03:21:02.157Z,9.2
2022-09-28T03:22:02.153Z,9.2
2022-09-28T03:23:23.667Z,9.1
2022-09-28T03:24:02.157Z,9.2
2022-09-28T03:25:02.126Z,9.3
2022-09-28T03:26:01.866Z,9.2
2022-09-28T03:27:01.784Z,9.3
2022-09-28T03:28:01.735Z,9.2
2022-09-28T03:29:01.592Z,9.1
2022-09-28T03:30:01.551Z,9.2
2022-09-28T03:31:01.374Z,9.2
2022-09-28T03:32:01.783Z,9.1
2022-09-28T03:33:01.735Z,9.2
2022-09-28T03:34:01.530Z,9.3
2022-09-28T03:35:01.456Z,9.3
2022-09-28T03:36:02.390Z,9.2
2022-09-28T03:37:02.178Z,9.4
2022-09-28T03:38:02.167Z,9.4
2022-09-28T03:39:01.937Z,9.3
2022-09-28T03:40:01.797Z,9.2
2022-09-28T03:41:01.833Z,9.2
2022-09-28T03:42:01.811Z,9.3
2022-09-28T03:43:01.741Z,9.3
2022-09-28T03:44:01.744Z,9.3
2022-09-28T03:45:01.524Z,9.2
2022-09-28T03:46:01.582Z,9.2
2022-09-28T03:47:01.898Z,9.2
2022-09-28T03:48:01.786Z,9.3
2022-09-28T03:49:01.811Z,9.3
2022-09-28T03:50:01.515Z,9.3
2022-09-28T03:51:01.513Z,9.2
2022-09-28T03:52:02.426Z,9.3
2022-09-28T03:53:02.188Z,9.3
2022-09-28T03:54:02.213Z,9.3
2022-09-28T03:55:02.000Z,9.2
2022-09-28T03:56:01.977Z,9.2
2022-09-28T03:57:01.810Z,9.3
2022-09-28T03:58:01.803Z,9.2
2022-09-28T03:59:01.576Z,9
2022-09-28T04:00:01.423Z,9.1
2022-09-28T04:01:01.519Z,9.2
2022-09-28T04:02:01.855Z,9
2022-09-28T04:03:01.954Z,9.1
2022-09-28T04:04:01.946Z,8.9
2022-09-28T04:05:01.780Z,9.1
2022-09-28T04:06:01.663Z,9.1
2022-09-28T04:07:01.656Z,9
2022-09-28T04:08:01.421Z,9
2022-09-28T04:09:01.450Z,9
2022-09-28T04:10:02.352Z,9.1
2022-09-28T04:11:02.139Z,9.1
2022-09-28T04:12:04.100Z,9
2022-09-28T04:13:01.370Z,8.8
2022-09-28T04:14:02.381Z,8.9
2022-09-28T04:15:02.166Z,8.8
2022-09-28T04:16:02.205Z,9
2022-09-28T04:17:01.503Z,8.9
2022-09-28T04:18:01.485Z,8.9
2022-09-28T04:19:02.388Z,8.9
2022-09-28T04:20:01.705Z,9
2022-09-28T04:21:01.474Z,8.8
2022-09-28T04:22:01.371Z,8.7
2022-09-28T04:23:02.367Z,8.7
2022-09-28T04:24:02.152Z,8.8
2022-09-28T04:25:02.152Z,8.9
2022-09-28T04:26:01.930Z,8.7
2022-09-28T04:27:01.780Z,8.8
2022-09-28T04:28:01.729Z,9
2022-09-28T04:29:05.626Z,8.8
2022-09-28T04:30:01.631Z,8.7
2022-09-28T04:31:01.602Z,8.9
2022-09-28T04:32:01.901Z,8.9
2022-09-28T04:33:02.007Z,8.9
2022-09-28T04:34:02.010Z,8.9
2022-09-28T04:35:01.781Z,8.9
2022-09-28T04:36:01.641Z,8.8
2022-09-28T04:37:01.626Z,8.9
2022-09-28T04:38:01.366Z,8.9
2022-09-28T04:39:02.379Z,9
2022-09-28T04:40:02.153Z,8.8
2022-09-28T04:41:02.197Z,8.9
2022-09-28T04:42:02.391Z,8.8
2022-09-28T04:43:02.169Z,8.9
2022-09-28T04:44:02.175Z,8.6
2022-09-28T04:45:01.982Z,8.8
2022-09-28T04:46:01.893Z,8.8
2022-09-28T04:47:04.899Z,8.7
2022-09-28T04:48:02.219Z,8.9
2022-09-28T04:49:02.098Z,8.9
2022-09-28T04:50:02.111Z,9
2022-09-28T04:51:01.922Z,9
2022-09-28T04:52:01.826Z,8.9
2022-09-28T04:53:01.784Z,8.9
2022-09-28T04:54:01.583Z,8.8
2022-09-28T04:55:01.555Z,8.8
2022-09-28T04:56:01.376Z,8.9
2022-09-28T04:57:02.336Z,8.8
2022-09-28T04:58:02.142Z,9
2022-09-28T04:59:02.022Z,8.8
2022-09-28T05:00:01.977Z,8.8
2022-09-28T05:01:01.902Z,8.9
2022-09-28T05:02:01.579Z,8.9
2022-09-28T05:03:01.540Z,9
2022-09-28T05:04:01.397Z,8.9
2022-09-28T05:05:02.363Z,8.9
2022-09-28T05:06:02.152Z,8.9
2022-09-28T05:07:02.143Z,8.9
2022-09-28T05:08:01.929Z,8.9
2022-09-28T05:09:01.825Z,9
2022-09-28T05:10:01.740Z,8.9
2022-09-28T05:11:01.594Z,8.9
2022-09-28T05:12:01.521Z,8.8
2022-09-28T05:13:02.439Z,9
2022-09-28T05:14:02.253Z,9
2022-09-28T05:15:02.231Z,9.1
2022-09-28T05:16:05.160Z,9
2022-09-28T05:17:01.761Z,8.9
2022-09-28T05:18:01.899Z,8.9
2022-09-28T05:19:01.640Z,8.9
2022-09-28T05:20:01.627Z,9
2022-09-28T05:21:02.069Z,9
2022-09-28T05:22:01.946Z,9.1
2022-09-28T05:23:01.938Z,9.1
2022-09-28T05:24:01.684Z,9
2022-09-28T05:25:01.619Z,9
2022-09-28T05:26:01.403Z,8.9
2022-09-28T05:27:02.413Z,9
2022-09-28T05:28:02.227Z,9.1
2022-09-28T05:29:02.235Z,9
2022-09-28T05:30:02.006Z,9
2022-09-28T05:31:01.946Z,8.8
2022-09-28T05:32:02.408Z,9
2022-09-28T05:33:01.396Z,9
2022-09-28T05:34:02.359Z,9
2022-09-28T05:35:02.172Z,9
2022-09-28T05:36:02.208Z,9.1
2022-09-28T05:37:02.002Z,9
2022-09-28T05:38:01.867Z,9.1
2022-09-28T05:39:01.818Z,9.2
2022-09-28T05:40:01.543Z,9
2022-09-28T05:41:05.813Z,8.9
2022-09-28T05:42:01.778Z,9
2022-09-28T05:43:01.644Z,9
2022-09-28T05:44:01.611Z,8.9
2022-09-28T05:45:01.377Z,9
2022-09-28T05:46:02.408Z,9
2022-09-28T05:47:01.887Z,9
2022-09-28T05:48:01.803Z,9.1
2022-09-28T05:49:01.625Z,9.3
2022-09-28T05:50:01.539Z,9.1
2022-09-28T05:51:02.407Z,9
2022-09-28T05:52:02.203Z,9
2022-09-28T05:53:02.210Z,8.9
2022-09-28T05:54:05.589Z,9.1
2022-09-28T05:55:01.447Z,9.1
2022-09-28T05:56:01.469Z,9.2
2022-09-28T05:57:02.328Z,9.1
2022-09-28T05:58:02.107Z,9.1
2022-09-28T05:59:02.114Z,9
2022-09-28T06:00:01.875Z,9.1
2022-09-28T06:01:01.710Z,9.3
2022-09-28T06:02:02.231Z,9.4
2022-09-28T06:03:05.439Z,9.6
2022-09-28T06:04:02.076Z,9.8
2022-09-28T06:05:01.997Z,9.7
2022-09-28T06:06:01.827Z,9.8
2022-09-28T06:07:01.718Z,9.5
2022-09-28T06:08:01.692Z,9.6
2022-09-28T06:09:01.411Z,9.6
2022-09-28T06:10:02.355Z,9.6
2022-09-28T06:11:02.183Z,9.5
2022-09-28T06:12:02.096Z,9.4
2022-09-28T06:13:01.971Z,9.5
2022-09-28T06:14:01.852Z,9.5
2022-09-28T06:15:01.754Z,9.5
2022-09-28T06:16:01.547Z,9.4
2022-09-28T06:17:02.010Z,9.5
2022-09-28T06:18:02.128Z,9.6
2022-09-28T06:19:01.887Z,9.5
2022-09-28T06:20:01.771Z,9.5
2022-09-28T06:21:01.702Z,9.4
2022-09-28T06:22:01.438Z,9.5
2022-09-28T06:23:02.501Z,9.6
2022-09-28T06:24:02.277Z,9.5
2022-09-28T06:25:02.246Z,9.5
2022-09-28T06:26:02.017Z,9.6
2022-09-28T06:27:01.976Z,9.4
2022-09-28T06:28:01.753Z,9.5
2022-09-28T06:29:01.562Z,9.5
2022-09-28T06:30:01.538Z,9.6
2022-09-28T06:31:02.492Z,9.6
2022-09-28T06:32:01.753Z,9.8
2022-09-28T06:33:01.713Z,9.9
2022-09-28T06:34:01.552Z,10
2022-09-28T06:35:01.311Z,10.1
2022-09-28T06:36:02.313Z,10.2
2022-09-28T06:37:02.061Z,10.2
2022-09-28T06:38:02.035Z,10.1
2022-09-28T06:39:01.819Z,10.1
2022-09-28T06:40:01.616Z,10
2022-09-28T06:41:01.574Z,10
2022-09-28T06:42:01.516Z,10.1
2022-09-28T06:43:01.464Z,10.2
2022-09-28T06:44:02.367Z,9.9
2022-09-28T06:45:02.152Z,10.1
2022-09-28T06:46:02.155Z,10.2
2022-09-28T06:47:01.407Z,10.4
2022-09-28T06:48:02.384Z,10.3
2022-09-28T06:49:02.159Z,10.2
2022-09-28T06:50:02.144Z,10.4
2022-09-28T06:51:01.946Z,10.7
2022-09-28T06:52:01.741Z,10.5
2022-09-28T06:53:01.712Z,10.5
2022-09-28T06:54:01.424Z,10.5
2022-09-28T06:55:02.412Z,10.8
2022-09-28T06:56:02.233Z,11
2022-09-28T06:57:02.198Z,11.1
2022-09-28T06:58:01.964Z,10.8
2022-09-28T06:59:01.933Z,11
2022-09-28T07:00:01.662Z,10.8
2022-09-28T07:01:01.669Z,10.7
2022-09-28T07:02:01.936Z,10.8
2022-09-28T07:03:02.011Z,10.8
2022-09-28T07:04:02.014Z,10.7
2022-09-28T07:05:01.789Z,10.6
2022-09-28T07:06:01.610Z,10.7
2022-09-28T07:07:01.590Z,11
2022-09-28T07:08:01.354Z,11
2022-09-28T07:09:16.530Z,10.8
2022-09-28T07:10:02.218Z,10.9
2022-09-28T07:11:02.207Z,11
2022-09-28T07:12:01.981Z,10.7
2022-09-28T07:13:01.997Z,11
2022-09-28T07:14:02.371Z,10.8
2022-09-28T07:15:02.136Z,11.2
2022-09-28T07:16:02.120Z,11.3
2022-09-28T07:17:12.878Z,11.3
2022-09-28T07:18:03.419Z,11.4
2022-09-28T07:19:01.534Z,11.3
2022-09-28T07:20:11.277Z,11.5
2022-09-28T07:21:02.324Z,11.4
2022-09-28T07:22:04.952Z,11.2
2022-09-28T07:23:10.613Z,11.7
2022-09-28T07:24:01.419Z,11.9
2022-09-28T07:25:02.425Z,12
2022-09-28T07:26:02.337Z,11.8
2022-09-28T07:27:01.460Z,11.9
2022-09-28T07:28:01.445Z,11.6
2022-09-28T07:29:02.309Z,11.5
2022-09-28T07:30:02.113Z,11.9
2022-09-28T07:31:02.081Z,11.6
2022-09-28T07:32:01.349Z,11.8
2022-09-28T07:33:02.332Z,11.9
2022-09-28T07:34:02.118Z,12.4
2022-09-28T07:35:02.061Z,11.9
2022-09-28T07:36:01.865Z,11.9
2022-09-28T07:37:01.727Z,11.8
2022-09-28T07:38:01.708Z,12
2022-09-28T07:39:01.462Z,12.3
2022-09-28T07:40:02.346Z,12.4
2022-09-28T07:41:02.213Z,12.2
2022-09-28T07:42:02.860Z,11.9
2022-09-28T07:43:01.831Z,11.9
2022-09-28T07:44:01.814Z,12.2
2022-09-28T07:45:01.535Z,11.9
2022-09-28T07:46:01.564Z,12.1
2022-09-28T07:47:01.648Z,12.2
2022-09-28T07:48:01.665Z,12.3
2022-09-28T07:49:01.750Z,12.3
2022-09-28T07:50:01.680Z,12.1
2022-09-28T07:51:01.427Z,12.1
2022-09-28T07:52:02.409Z,12.2
2022-09-28T07:53:02.171Z,12.1
2022-09-28T07:54:02.155Z,12
2022-09-28T07:55:06.096Z,11.8
2022-09-28T07:56:02.164Z,12.1
2022-09-28T07:57:02.153Z,12.3
2022-09-28T07:58:01.960Z,12.4
2022-09-28T07:59:01.748Z,12.2
2022-09-28T08:00:01.721Z,12.1
2022-09-28T08:01:01.534Z,12.1
2022-09-28T08:02:02.072Z,11.7
2022-09-28T08:03:02.043Z,11.7
2022-09-28T08:04:01.824Z,11.7
2022-09-28T08:05:01.742Z,11.9
2022-09-28T08:06:01.716Z,11.9
2022-09-28T08:07:01.416Z,11.9
2022-09-28T08:08:02.418Z,12.1
2022-09-28T08:09:02.211Z,11.9
2022-09-28T08:10:02.144Z,11.9
2022-09-28T08:11:01.978Z,12
2022-09-28T08:12:01.978Z,11.9
2022-09-28T08:13:02.584Z,11.8
2022-09-28T08:14:02.144Z,11.9
2022-09-28T08:15:02.149Z,11.9
2022-09-28T08:16:01.915Z,11.9
2022-09-28T08:17:02.207Z,12
2022-09-28T08:18:02.864Z,11.9
2022-09-28T08:19:01.978Z,11.9
2022-09-28T08:20:01.864Z,11.9
2022-09-28T08:21:01.844Z,12.1
2022-09-28T08:22:01.566Z,12.3
2022-09-28T08:23:01.491Z,12.3
2022-09-28T08:24:02.377Z,12.3
2022-09-28T08:25:02.130Z,12.6
2022-09-28T08:26:02.112Z,12.8
2022-09-28T08:27:01.905Z,12.9
2022-09-28T08:28:01.727Z,13
2022-09-28T08:29:01.673Z,13.4
2022-09-28T08:30:01.449Z,13.3
2022-09-28T08:31:02.459Z,13.8
2022-09-28T08:32:01.840Z,13.1
2022-09-28T08:33:01.787Z,13.4
2022-09-28T08:34:01.601Z,13.5
2022-09-28T08:35:01.504Z,13.5
2022-09-28T08:36:01.337Z,13.2
2022-09-28T08:37:02.310Z,13.1
2022-09-28T08:38:02.122Z,12.7
2022-09-28T08:39:02.075Z,12.6
2022-09-28T08:40:01.877Z,13.1
2022-09-28T08:41:01.788Z,13.2
2022-09-28T08:42:01.723Z,13.1
2022-09-28T08:43:01.502Z,13.3
2022-09-28T08:44:02.416Z,13.4
2022-09-28T08:45:02.177Z,13.3
2022-09-28T08:46:02.190Z,13.5
2022-09-28T08:47:01.311Z,13.5
2022-09-28T08:48:02.283Z,13.8
2022-09-28T08:49:20.928Z,13.8
2022-09-28T08:50:02.013Z,13.8
2022-09-28T08:51:01.971Z,13.9
2022-09-28T08:52:01.686Z,14.1
2022-09-28T08:53:01.660Z,14.5
2022-09-28T08:54:01.424Z,14.6
2022-09-28T08:55:02.369Z,13.8
2022-09-28T08:56:02.178Z,13.5
2022-09-28T08:57:02.131Z,13.5
2022-09-28T08:58:01.854Z,13.4
2022-09-28T08:59:01.684Z,13.2
2022-09-28T09:00:01.621Z,13.2
2022-09-28T09:01:01.459Z,13.4
2022-09-28T09:02:02.077Z,13
2022-09-28T09:03:02.218Z,12.5
2022-09-28T09:04:01.921Z,12.8
2022-09-28T09:05:02.126Z,13.2
2022-09-28T09:06:02.285Z,13.2
2022-09-28T09:07:02.028Z,12.7
2022-09-28T09:08:01.981Z,12.9
2022-09-28T09:09:01.714Z,13.3
2022-09-28T09:10:01.653Z,13.6
2022-09-28T09:11:01.643Z,14
2022-09-28T09:12:01.367Z,13.7
2022-09-28T09:13:02.342Z,14.1
2022-09-28T09:14:02.085Z,14
2022-09-28T09:15:02.057Z,14.2
2022-09-28T09:16:01.832Z,14.3
2022-09-28T09:17:02.087Z,14.2
2022-09-28T09:18:02.115Z,14.2
2022-09-28T09:19:01.830Z,14.1
2022-09-28T09:20:01.697Z,13.8
2022-09-28T09:21:01.681Z,13.9
2022-09-28T09:22:01.490Z,14.4
2022-09-28T09:23:02.375Z,14
2022-09-28T09:24:02.175Z,13.8
2022-09-28T09:25:02.116Z,13.9
2022-09-28T09:26:01.837Z,13.6
2022-09-28T09:27:01.752Z,13.6
2022-09-28T09:28:01.697Z,13.4
2022-09-28T09:29:01.430Z,13.5
2022-09-28T09:30:02.401Z,13.5
2022-09-28T09:31:02.173Z,13.6
2022-09-28T09:32:01.448Z,13.9
2022-09-28T09:33:01.427Z,14
2022-09-28T09:34:02.319Z,14.3
2022-09-28T09:35:02.063Z,15
2022-09-28T09:36:01.997Z,14.8
2022-09-28T09:37:01.858Z,14.6
2022-09-28T09:38:01.725Z,14.1
2022-09-28T09:39:01.621Z,14.1
2022-09-28T09:40:01.382Z,13.7
2022-09-28T09:41:02.418Z,13.8
2022-09-28T09:42:01.531Z,14
2022-09-28T09:43:01.462Z,13.7
2022-09-28T09:44:02.354Z,13.8
2022-09-28T09:45:02.131Z,13.7
2022-09-28T09:46:02.115Z,14.4
2022-09-28T09:47:02.286Z,13.8
2022-09-28T09:48:02.075Z,13.6
2022-09-28T09:49:02.023Z,14
2022-09-28T09:50:04.005Z,13.9
2022-09-28T09:51:01.698Z,14.7
2022-09-28T09:52:01.587Z,14.5
2022-09-28T09:53:01.347Z,15.1
2022-09-28T09:54:02.350Z,14.8
2022-09-28T09:55:02.087Z,15.4
2022-09-28T09:56:02.058Z,15.6
2022-09-28T09:57:01.827Z,15.4
2022-09-28T09:58:01.698Z,15.7
2022-09-28T09:59:01.648Z,15.3
2022-09-28T10:00:01.395Z,15
2022-09-28T10:01:02.426Z,15
2022-09-28T10:02:01.634Z,14.4
2022-09-28T10:03:01.619Z,14.6
2022-09-28T10:04:01.378Z,14.8
2022-09-28T10:05:02.318Z,14.6
2022-09-28T10:06:02.093Z,14.8
2022-09-28T10:07:02.059Z,15.1
2022-09-28T10:08:01.767Z,14.6
2022-09-28T10:09:01.669Z,15.1
2022-09-28T10:10:01.618Z,15.3
2022-09-28T10:11:01.391Z,15.2
2022-09-28T10:12:02.351Z,15.8
2022-09-28T10:13:02.127Z,15.8
2022-09-28T10:14:02.051Z,15.9
2022-09-28T10:15:01.843Z,16.4
2022-09-28T10:16:01.770Z,16.5
2022-09-28T10:17:02.051Z,16.3
2022-09-28T10:18:02.168Z,16.1
2022-09-28T10:19:01.914Z,15.6
2022-09-28T10:20:01.903Z,15.8
2022-09-28T10:21:01.650Z,16.3
2022-09-28T10:22:01.588Z,16.7
2022-09-28T10:23:01.312Z,16.6
2022-09-28T10:24:02.333Z,17.1
2022-09-28T10:25:02.268Z,17.2
2022-09-28T10:26:02.215Z,17.6
2022-09-28T10:27:01.958Z,18.6
2022-09-28T10:28:01.954Z,18.3
2022-09-28T10:29:01.685Z,18.1
2022-09-28T10:30:01.633Z,18.6
2022-09-28T10:31:01.474Z,18.2
2022-09-28T10:32:02.085Z,16.8
2022-09-28T10:33:02.039Z,16.3
2022-09-28T10:34:01.806Z,15.8
2022-09-28T10:35:01.736Z,16
2022-09-28T10:36:01.688Z,16.3
2022-09-28T10:37:01.466Z,16.5
2022-09-28T10:38:01.378Z,15.8
2022-09-28T10:39:02.124Z,15.7
2022-09-28T10:40:01.978Z,15.6
2022-09-28T10:41:01.971Z,16
2022-09-28T10:42:02.046Z,15.5
2022-09-28T10:43:02.059Z,15.4
2022-09-28T10:44:02.022Z,15.3
2022-09-28T10:45:01.778Z,15.6
2022-09-28T10:46:01.722Z,15.6
2022-09-28T10:47:01.895Z,16.3
2022-09-28T10:48:01.810Z,16.6
2022-09-28T10:49:01.564Z,17
2022-09-28T10:50:01.470Z,16.9
2022-09-28T10:51:02.309Z,17
2022-09-28T10:52:02.161Z,17.5
2022-09-28T10:53:02.032Z,16.7
2022-09-28T10:54:01.843Z,16.9
2022-09-28T10:55:01.669Z,16.7
2022-09-28T10:56:01.620Z,16.7
2022-09-28T10:57:01.378Z,17.1
2022-09-28T10:58:02.347Z,16.9
2022-09-28T10:59:02.114Z,17.2
2022-09-28T11:00:02.081Z,17.4
2022-09-28T11:01:01.845Z,17.8
2022-09-28T11:02:02.186Z,17.1
2022-09-28T11:03:02.259Z,17.3
2022-09-28T11:04:02.074Z,17.8
2022-09-28T11:05:01.971Z,17.5
2022-09-28T11:06:01.727Z,17.8
2022-09-28T11:07:01.662Z,18.3
2022-09-28T11:08:01.727Z,18.1
2022-09-28T11:09:01.622Z,18
2022-09-28T11:10:01.357Z,17.7
2022-09-28T11:11:02.339Z,17.4
2022-09-28T11:12:02.102Z,17.5
2022-09-28T11:13:02.048Z,16.6
2022-09-28T11:14:01.878Z,16.5
2022-09-28T11:15:02.229Z,16.5
2022-09-28T11:16:02.171Z,16.9
2022-09-28T11:17:01.368Z,17.1
2022-09-28T11:18:01.487Z,16.3
2022-09-28T11:19:02.367Z,16.8
2022-09-28T11:20:02.128Z,17.3
2022-09-28T11:21:02.036Z,16.9
2022-09-28T11:22:01.798Z,16.7
2022-09-28T11:23:01.600Z,16.4
2022-09-28T11:24:01.558Z,17.2
2022-09-28T11:25:02.408Z,17.3
2022-09-28T11:26:02.202Z,17.3
2022-09-28T11:27:02.121Z,17.3
2022-09-28T11:28:01.817Z,17
2022-09-28T11:29:01.736Z,16.4
2022-09-28T11:30:01.699Z,16.3
2022-09-28T11:31:01.472Z,16
2022-09-28T11:32:01.763Z,16.1
2022-09-28T11:33:01.789Z,16.5
2022-09-28T11:34:01.524Z,16.4
2022-09-28T11:35:01.437Z,16.5
2022-09-28T11:36:02.294Z,16.2
2022-09-28T11:37:02.127Z,15.9
2022-09-28T11:38:02.023Z,15.8
2022-09-28T11:39:01.825Z,15.8
2022-09-28T11:40:01.783Z,15.9
2022-09-28T11:41:01.766Z,15.8
2022-09-28T11:42:01.559Z,15.8
2022-09-28T11:43:01.537Z,16
2022-09-28T11:44:01.420Z,16.3
2022-09-28T11:45:02.412Z,16.1
2022-09-28T11:46:02.218Z,16.3
2022-09-28T11:47:01.371Z,16.2
2022-09-28T11:48:02.360Z,16
2022-09-28T11:49:02.126Z,16.1
2022-09-28T11:50:02.062Z,15.9
2022-09-28T11:51:01.865Z,16.2
2022-09-28T11:52:01.718Z,16.1
2022-09-28T11:53:01.625Z,16.1
2022-09-28T11:54:01.442Z,15.6
2022-09-28T11:55:02.350Z,16
2022-09-28T11:56:05.361Z,16
2022-09-28T11:57:01.635Z,16.5
2022-09-28T11:58:01.582Z,16.8
2022-09-28T11:59:01.341Z,16.9
2022-09-28T12:00:02.346Z,17.4
2022-09-28T12:01:02.085Z,17.7
2022-09-28T12:02:02.043Z,17.8
2022-09-28T12:03:02.446Z,18.2
2022-09-28T12:04:01.614Z,17.7
2022-09-28T12:05:01.530Z,17.8
2022-09-28T12:06:01.354Z,18.2
2022-09-28T12:07:02.278Z,17.8
2022-09-28T12:08:02.025Z,17.9
2022-09-28T12:09:02.008Z,17.7
2022-09-28T12:10:01.771Z,18.1
2022-09-28T12:11:01.679Z,18
2022-09-28T12:12:01.575Z,17.9
2022-09-28T12:13:01.361Z,17.8
2022-09-28T12:14:02.375Z,17.7
2022-09-28T12:15:02.144Z,17.3
2022-09-28T12:16:23.238Z,16.8
2022-09-28T12:17:06.195Z,16.9
2022-09-28T12:18:01.499Z,17.1
2022-09-28T12:19:01.629Z,16.9
2022-09-28T12:20:01.579Z,16.6
2022-09-28T12:21:04.387Z,16.2
2022-09-28T12:22:02.050Z,16.5
2022-09-28T12:23:01.959Z,16.4
2022-09-28T12:24:01.955Z,16.1
2022-09-28T12:25:01.733Z,16.3
2022-09-28T12:26:01.689Z,16.3
2022-09-28T12:27:01.412Z,16.4
2022-09-28T12:28:02.425Z,16
2022-09-28T12:29:02.199Z,16.1
2022-09-28T12:30:02.274Z,16.2
2022-09-28T12:31:02.340Z,16.2
2022-09-28T12:32:01.344Z,16.1
2022-09-28T12:33:02.330Z,16.2
2022-09-28T12:34:02.143Z,16.3
2022-09-28T12:35:02.011Z,16.3
2022-09-28T12:36:01.820Z,16.2
2022-09-28T12:37:01.718Z,16.6
2022-09-28T12:38:01.737Z,16.5
2022-09-28T12:39:18.845Z,16.5
2022-09-28T12:40:02.147Z,16.4
2022-09-28T12:41:02.165Z,16.9
2022-09-28T12:42:02.288Z,17.1
2022-09-28T12:43:02.037Z,17.4
2022-09-28T12:44:02.073Z,17.6
2022-09-28T12:45:01.853Z,18
2022-09-28T12:46:11.328Z,18.4
2022-09-28T12:47:01.764Z,17.8
2022-09-28T12:48:01.794Z,17.3
2022-09-28T12:49:47.549Z,17.2
2022-09-28T12:50:37.411Z,17
2022-09-28T12:51:02.187Z,16.9
2022-09-28T12:52:01.573Z,16.7
2022-09-28T12:53:02.891Z,16.9
2022-09-28T12:54:02.100Z,17
2022-09-28T12:55:01.998Z,17
2022-09-28T12:56:02.014Z,16.8
2022-09-28T12:57:01.779Z,17
2022-09-28T12:58:01.647Z,17
2022-09-28T12:59:01.608Z,17.3
2022-09-28T13:00:01.406Z,17.3
2022-09-28T13:01:01.551Z,17.5
2022-09-28T13:02:01.538Z,17.4
2022-09-28T13:03:01.540Z,17.4
2022-09-28T13:04:01.412Z,17.2
2022-09-28T13:05:02.343Z,17.5
2022-09-28T13:06:02.182Z,17.1
2022-09-28T13:07:02.130Z,17
2022-09-28T13:08:01.881Z,17.1
2022-09-28T13:09:01.743Z,16.6
2022-09-28T13:10:01.699Z,16.8
2022-09-28T13:11:05.510Z,16.9
2022-09-28T13:12:01.804Z,16.5
2022-09-28T13:13:01.722Z,16.5
2022-09-28T13:14:01.436Z,16.5
2022-09-28T13:15:01.410Z,16.5
2022-09-28T13:16:02.417Z,16.3
2022-09-28T13:17:01.330Z,16.3
2022-09-28T13:18:02.356Z,16.3
2022-09-28T13:19:02.091Z,16.4
2022-09-28T13:20:02.047Z,16.3
2022-09-28T13:21:01.826Z,16.3
2022-09-28T13:22:01.644Z,16.3
2022-09-28T13:23:01.646Z,16.3
2022-09-28T13:24:14.678Z,16.3
2022-09-28T13:25:01.994Z,16.3
2022-09-28T13:26:01.965Z,16.2
2022-09-28T13:27:01.812Z,16
2022-09-28T13:28:01.630Z,16.2
2022-09-28T13:29:01.584Z,16.1
2022-09-28T13:30:01.379Z,16.1
2022-09-28T13:31:01.610Z,16.1
2022-09-28T13:32:02.153Z,16
2022-09-28T13:33:01.996Z,16